EZY2EL EGKK-LFBO
Flight info
| Callsign | EZY2EL |
|---|---|
| Flight time | N/A |
| Altitude | 35000 |
| Route | SFD Y47 BENBO UY47 DRAKE L151 SITET UN859 SOPIL DCT BALAN DCT EVPOK DCT NARAK |
| Aircraft | A320/M-SDE3FGHIRWY/LB1 |
Departure
| Time | 2026-05-04 19:39 |
|---|---|
| Airport | London Gatwick Airport (EGKK) |
Arrival
| Time | N/A |
|---|---|
| Airport | Toulouse-Blagnac Airport (LFBO) |
| Time | Latitude | Longitude | Altitude | Speed | Heading |
|---|---|---|---|---|---|
| 2026-05-04 19:04 | 51.15940 | -0.17984 | 212 ft | 0 kts | 78° |
| 2026-05-04 19:21 | 51.15937 | -0.18005 | 215 ft | 2 kts | 78° |
| 2026-05-04 19:21 | 51.15933 | -0.18032 | 209 ft | 2 kts | 78° |
| 2026-05-04 19:22 | 51.15929 | -0.18058 | 207 ft | 2 kts | 97° |
| 2026-05-04 19:22 | 51.15931 | -0.18081 | 204 ft | 0 kts | 103° |
| 2026-05-04 19:22 | 51.15935 | -0.18097 | 204 ft | 2 kts | 122° |
| 2026-05-04 19:22 | 51.15946 | -0.18115 | 214 ft | 2 kts | 164° |
| 2026-05-04 19:23 | 51.15947 | -0.18116 | 214 ft | 0 kts | 164° |
| 2026-05-04 19:27 | 51.15923 | -0.18106 | 206 ft | 8 kts | 167° |
| 2026-05-04 19:27 | 51.15887 | -0.18095 | 208 ft | 8 kts | 171° |
| 2026-05-04 19:27 | 51.15824 | -0.18073 | 204 ft | 6 kts | 167° |
| 2026-05-04 19:27 | 51.15785 | -0.18058 | 207 ft | 6 kts | 167° |
| 2026-05-04 19:28 | 51.15736 | -0.18041 | 213 ft | 7 kts | 168° |
| 2026-05-04 19:28 | 51.15685 | -0.18079 | 210 ft | 10 kts | 242° |
| 2026-05-04 19:28 | 51.15670 | -0.18176 | 210 ft | 9 kts | 257° |
| 2026-05-04 19:28 | 51.15661 | -0.18235 | 212 ft | 8 kts | 257° |
| 2026-05-04 19:29 | 51.15638 | -0.18343 | 205 ft | 10 kts | 232° |
| 2026-05-04 19:29 | 51.15577 | -0.18343 | 213 ft | 8 kts | 166° |
| 2026-05-04 19:29 | 51.15501 | -0.18316 | 212 ft | 12 kts | 168° |
| 2026-05-04 19:29 | 51.15427 | -0.18291 | 211 ft | 10 kts | 167° |
| 2026-05-04 19:30 | 51.15362 | -0.18268 | 208 ft | 10 kts | 167° |
| 2026-05-04 19:30 | 51.15278 | -0.18238 | 204 ft | 10 kts | 168° |
| 2026-05-04 19:30 | 51.15215 | -0.18220 | 204 ft | 7 kts | 183° |
| 2026-05-04 19:30 | 51.15190 | -0.18269 | 207 ft | 6 kts | 258° |
| 2026-05-04 19:31 | 51.15179 | -0.18382 | 204 ft | 14 kts | 257° |
| 2026-05-04 19:31 | 51.15158 | -0.18533 | 209 ft | 13 kts | 257° |
| 2026-05-04 19:31 | 51.15139 | -0.18669 | 208 ft | 12 kts | 257° |
| 2026-05-04 19:31 | 51.15122 | -0.18792 | 206 ft | 11 kts | 257° |
| 2026-05-04 19:32 | 51.15107 | -0.18903 | 206 ft | 11 kts | 257° |
| 2026-05-04 19:32 | 51.15085 | -0.19063 | 211 ft | 16 kts | 257° |
| 2026-05-04 19:32 | 51.15060 | -0.19227 | 204 ft | 15 kts | 249° |
| 2026-05-04 19:32 | 51.14986 | -0.19270 | 208 ft | 10 kts | 197° |
| 2026-05-04 19:33 | 51.14944 | -0.19421 | 209 ft | 20 kts | 259° |
| 2026-05-04 19:33 | 51.14915 | -0.19634 | 206 ft | 19 kts | 258° |
| 2026-05-04 19:33 | 51.14887 | -0.19838 | 209 ft | 19 kts | 257° |
| 2026-05-04 19:33 | 51.14859 | -0.20044 | 204 ft | 19 kts | 258° |
| 2026-05-04 19:34 | 51.14830 | -0.20252 | 202 ft | 20 kts | 257° |
| 2026-05-04 19:34 | 51.14800 | -0.20465 | 208 ft | 19 kts | 257° |
| 2026-05-04 19:34 | 51.14773 | -0.20665 | 203 ft | 18 kts | 258° |
| 2026-05-04 19:34 | 51.14747 | -0.20851 | 206 ft | 16 kts | 257° |
| 2026-05-04 19:35 | 51.14724 | -0.21014 | 209 ft | 14 kts | 257° |
| 2026-05-04 19:35 | 51.14704 | -0.21160 | 204 ft | 13 kts | 258° |
| 2026-05-04 19:35 | 51.14698 | -0.21206 | 207 ft | 0 kts | 258° |
| 2026-05-04 19:36 | 51.14697 | -0.21213 | 211 ft | 3 kts | 258° |
| 2026-05-04 19:36 | 51.14683 | -0.21297 | 211 ft | 12 kts | 245° |
| 2026-05-04 19:37 | 51.14640 | -0.21335 | 207 ft | 0 kts | 174° |
| 2026-05-04 19:37 | 51.14616 | -0.21327 | 204 ft | 0 kts | 167° |
| 2026-05-04 19:38 | 51.14614 | -0.21326 | 204 ft | 4 kts | 167° |
| 2026-05-04 19:38 | 51.14558 | -0.21293 | 208 ft | 9 kts | 149° |
| 2026-05-04 19:38 | 51.14521 | -0.21159 | 204 ft | 16 kts | 85° |
| 2026-05-04 19:38 | 51.14549 | -0.20959 | 206 ft | 29 kts | 77° |
| 2026-05-04 19:39 | 51.14648 | -0.20237 | 208 ft | 101 kts | 78° |
| 2026-05-04 19:39 | 51.14840 | -0.18840 | 215 ft | 154 kts | 77° |
| 2026-05-04 19:39 | 51.15068 | -0.17157 | 870 ft | 153 kts | 77° |
| 2026-05-04 19:39 | 51.15299 | -0.15483 | 1497 ft | 163 kts | 76° |
| 2026-05-04 19:40 | 51.15567 | -0.13606 | 1908 ft | 184 kts | 76° |
| 2026-05-04 19:40 | 51.15862 | -0.11491 | 2299 ft | 210 kts | 76° |
| 2026-05-04 19:40 | 51.16175 | -0.09137 | 3048 ft | 218 kts | 80° |
| 2026-05-04 19:40 | 51.15990 | -0.06731 | 3858 ft | 228 kts | 117° |
| 2026-05-04 19:41 | 51.14833 | -0.04883 | 4374 ft | 253 kts | 151° |
| 2026-05-04 19:41 | 51.13114 | -0.03939 | 5034 ft | 268 kts | 167° |
| 2026-05-04 19:41 | 51.11263 | -0.03431 | 5942 ft | 273 kts | 171° |
| 2026-05-04 19:41 | 51.09364 | -0.03018 | 6877 ft | 276 kts | 171° |
| 2026-05-04 19:42 | 51.07527 | -0.02461 | 7771 ft | 278 kts | 167° |
| 2026-05-04 19:42 | 51.05617 | -0.01719 | 8704 ft | 280 kts | 165° |